createdAt,value
2022-08-14T00:02:04.884Z,3.28
2022-08-14T00:04:42.356Z,2.95
2022-08-14T00:07:12.834Z,2.88
2022-08-14T00:10:01.576Z,2.80
2022-08-14T00:12:41.294Z,3.60
2022-08-14T00:15:25.568Z,3.25
2022-08-14T00:17:58.490Z,3.22
2022-08-14T00:20:30.402Z,3.40
2022-08-14T00:23:12.656Z,3.33
2022-08-14T00:25:59.113Z,3.22
2022-08-14T00:28:36.732Z,3.17
2022-08-14T00:31:07.727Z,3.03
2022-08-14T00:33:51.857Z,3.42
2022-08-14T00:36:35.991Z,3.38
2022-08-14T00:39:17.991Z,3.17
2022-08-14T00:41:47.766Z,3.55
2022-08-14T00:44:21.351Z,3.58
2022-08-14T00:46:56.216Z,3.40
2022-08-14T00:49:28.702Z,3.65
2022-08-14T00:52:00.574Z,4.10
2022-08-14T00:54:28.132Z,4.25
2022-08-14T00:56:56.177Z,3.90
2022-08-14T00:59:26.005Z,4.57
2022-08-14T01:02:00.092Z,4.50
2022-08-14T01:04:52.411Z,3.85
2022-08-14T01:07:21.865Z,4.20
2022-08-14T01:09:53.037Z,3.88
2022-08-14T01:12:27.267Z,3.70
2022-08-14T01:14:59.431Z,4.35
2022-08-14T01:18:04.597Z,4.10
2022-08-14T01:20:51.427Z,3.83
2022-08-14T01:23:21.727Z,4.50
2022-08-14T01:25:51.096Z,4.30
2022-08-14T01:28:46.695Z,4.63
2022-08-14T01:31:14.282Z,4.63
2022-08-14T01:33:59.838Z,4.68
2022-08-14T01:36:39.379Z,3.90
2022-08-14T01:39:14.038Z,3.20
2022-08-14T01:41:46.752Z,3.45
2022-08-14T01:44:32.281Z,3.60
2022-08-14T01:47:21.381Z,3.50
2022-08-14T01:50:01.420Z,2.97
2022-08-14T01:52:58.940Z,2.92
2022-08-14T01:55:32.977Z,2.85
2022-08-14T01:58:19.781Z,3.20
2022-08-14T02:00:55.460Z,3.15
2022-08-14T02:03:30.163Z,3.25
2022-08-14T02:06:03.963Z,3.40
2022-08-14T02:08:52.679Z,3.00
2022-08-14T02:11:25.174Z,3.17
2022-08-14T02:16:45.129Z,3.22
2022-08-14T02:19:18.245Z,3.50
2022-08-14T02:21:50.349Z,3.05
2022-08-14T02:24:39.827Z,3.20
2022-08-14T02:28:23.957Z,3.40
2022-08-14T02:30:02.044Z,3.10
2022-08-14T02:32:36.506Z,3.30
2022-08-14T02:35:18.887Z,3.47
2022-08-14T02:37:50.671Z,3.28
2022-08-14T02:40:19.453Z,3.13
2022-08-14T02:42:54.923Z,3.40
2022-08-14T02:45:33.395Z,3.28
2022-08-14T02:48:10.369Z,3.47
2022-08-14T02:50:55.589Z,3.17
2022-08-14T02:53:23.694Z,3.50
2022-08-14T02:55:51.478Z,3.10
2022-08-14T02:58:30.451Z,3.30
2022-08-14T03:01:01.359Z,3.17
2022-08-14T03:03:31.815Z,3.45
2022-08-14T03:06:05.542Z,3.10
2022-08-14T03:08:33.758Z,3.00
2022-08-14T03:11:04.382Z,3.22
2022-08-14T03:13:37.954Z,3.42
2022-08-14T03:16:20.130Z,2.92
2022-08-14T03:18:59.903Z,3.60
2022-08-14T03:21:30.123Z,3.25
2022-08-14T03:24:21.683Z,3.20
2022-08-14T03:26:57.277Z,3.05
2022-08-14T03:29:29.498Z,2.67
2022-08-14T03:31:57.454Z,3.92
2022-08-14T03:34:48.419Z,3.60
2022-08-14T03:37:38.050Z,3.30
2022-08-14T03:40:01.913Z,3.40
2022-08-14T03:42:36.146Z,3.58
2022-08-14T03:45:19.081Z,3.28
2022-08-14T03:47:58.599Z,3.20
2022-08-14T03:50:31.633Z,3.35
2022-08-14T03:53:01.750Z,3.55
2022-08-14T03:55:30.905Z,4.20
2022-08-14T03:58:00.347Z,3.70
2022-08-14T04:00:43.049Z,3.55
2022-08-14T04:03:16.509Z,3.97
2022-08-14T04:05:48.821Z,3.88
2022-08-14T04:08:29.159Z,3.85
2022-08-14T04:11:02.986Z,4.10
2022-08-14T04:13:39.565Z,3.85
2022-08-14T04:16:31.674Z,3.88
2022-08-14T04:19:00.650Z,4.53
2022-08-14T04:21:30.841Z,3.88
2022-08-14T04:24:07.451Z,4.20
2022-08-14T04:26:43.093Z,4.40
2022-08-14T04:29:15.452Z,4.88
2022-08-14T04:33:02.520Z,4.40
2022-08-14T04:34:35.069Z,4.07
2022-08-14T04:37:24.979Z,4.25
2022-08-14T04:40:13.538Z,4.10
2022-08-14T04:43:02.226Z,3.88
2022-08-14T04:45:36.398Z,4.60
2022-08-14T04:48:12.906Z,3.53
2022-08-14T04:50:45.541Z,3.72
2022-08-14T04:53:26.312Z,3.80
2022-08-14T04:55:55.957Z,4.05
2022-08-14T05:01:03.215Z,3.88
2022-08-14T05:03:33.464Z,3.67
2022-08-14T05:08:53.961Z,4.05
2022-08-14T05:11:20.101Z,4.00
2022-08-14T05:16:37.595Z,4.53
2022-08-14T05:19:18.820Z,3.67
2022-08-14T05:22:15.881Z,3.70
2022-08-14T05:24:44.651Z,4.07
2022-08-14T05:27:12.416Z,3.97
2022-08-14T05:29:44.748Z,4.00
2022-08-14T05:32:13.778Z,4.13
2022-08-14T05:34:45.890Z,3.78
2022-08-14T05:37:15.388Z,3.85
2022-08-14T05:39:43.417Z,3.72
2022-08-14T05:42:22.420Z,3.65
2022-08-14T05:44:56.158Z,4.25
2022-08-14T05:47:28.636Z,4.90
2022-08-14T05:50:00.026Z,4.22
2022-08-14T05:52:39.274Z,4.72
2022-08-14T05:55:09.530Z,4.50
2022-08-14T05:58:13.159Z,4.32
2022-08-14T06:00:43.143Z,4.45
2022-08-14T06:03:17.303Z,5.25
2022-08-14T06:05:48.229Z,6.53
2022-08-14T06:08:36.795Z,8.40
2022-08-14T06:11:10.734Z,9.70
2022-08-14T06:13:47.972Z,11.80
2022-08-14T06:16:18.783Z,10.55
2022-08-14T06:18:52.434Z,10.25
2022-08-14T06:21:24.143Z,9.55
2022-08-14T06:23:52.264Z,11.82
2022-08-14T06:26:22.049Z,9.85
2022-08-14T06:28:51.970Z,10.73
2022-08-14T06:31:21.460Z,12.70
2022-08-14T06:35:11.334Z,13.32
2022-08-14T06:36:39.418Z,14.88
2022-08-14T06:39:10.142Z,17.13
2022-08-14T06:41:57.736Z,16.67
2022-08-14T06:44:30.911Z,17.77
2022-08-14T06:47:02.884Z,16.25
2022-08-14T06:49:42.770Z,18.13
2022-08-14T06:52:15.985Z,18.15
2022-08-14T06:54:45.094Z,18.10
2022-08-14T06:57:13.971Z,17.85
2022-08-14T06:59:42.938Z,16.45
2022-08-14T07:02:29.903Z,15.50
2022-08-14T07:05:23.176Z,16.42
2022-08-14T07:07:52.037Z,16.58
2022-08-14T07:10:22.273Z,15.52
2022-08-14T07:13:02.014Z,14.77
2022-08-14T07:15:39.592Z,14.63
2022-08-14T07:18:09.516Z,15.50
2022-08-14T07:20:38.652Z,14.27
2022-08-14T07:23:09.159Z,15.73
2022-08-14T07:25:42.179Z,12.45
2022-08-14T07:28:23.567Z,11.23
2022-08-14T07:31:05.131Z,12.85
2022-08-14T07:33:43.621Z,11.15
2022-08-14T07:36:26.984Z,11.20
2022-08-14T07:39:03.095Z,9.40
2022-08-14T07:41:42.294Z,10.30
2022-08-14T07:44:32.209Z,9.48
2022-08-14T07:47:02.051Z,9.43
2022-08-14T07:49:34.421Z,8.90
2022-08-14T07:52:03.290Z,8.40
2022-08-14T07:54:31.740Z,8.13
2022-08-14T07:57:06.598Z,6.93
2022-08-14T07:59:43.591Z,7.15
2022-08-14T08:02:17.112Z,6.05
2022-08-14T08:04:59.028Z,5.38
2022-08-14T08:07:30.963Z,5.63
2022-08-14T08:10:46.761Z,5.32
2022-08-14T08:13:18.778Z,5.10
2022-08-14T08:15:56.652Z,5.28
2022-08-14T08:18:27.483Z,4.50
2022-08-14T08:20:59.637Z,4.82
2022-08-14T08:23:39.918Z,4.75
2022-08-14T08:26:11.282Z,4.70
2022-08-14T08:28:41.520Z,5.03
2022-08-14T08:31:12.920Z,4.35
2022-08-14T08:33:44.866Z,4.88
2022-08-14T08:36:18.758Z,4.30
2022-08-14T08:39:16.370Z,3.47
2022-08-14T08:41:49.335Z,3.60
2022-08-14T08:44:31.927Z,3.95
2022-08-14T08:47:06.738Z,4.13
2022-08-14T08:49:43.334Z,3.60
2022-08-14T08:52:24.563Z,3.60
2022-08-14T08:54:57.132Z,4.00
2022-08-14T08:57:25.495Z,3.38
2022-08-14T08:59:54.843Z,3.30
2022-08-14T09:02:27.493Z,3.42
2022-08-14T09:05:03.844Z,3.15
2022-08-14T09:07:33.062Z,3.70
2022-08-14T09:10:01.224Z,2.78
2022-08-14T09:12:32.129Z,2.80
2022-08-14T09:15:03.599Z,2.85
2022-08-14T09:17:37.135Z,2.97
2022-08-14T09:20:05.750Z,2.92
2022-08-14T09:22:48.124Z,2.60
2022-08-14T09:25:19.479Z,2.95
2022-08-14T09:27:47.803Z,2.90
2022-08-14T09:30:32.514Z,2.70
2022-08-14T09:33:11.601Z,2.88
2022-08-14T09:35:57.321Z,2.50
2022-08-14T09:39:02.212Z,2.63
2022-08-14T09:42:21.795Z,2.80
2022-08-14T09:44:54.585Z,2.83
2022-08-14T09:48:00.796Z,2.50
2022-08-14T09:50:30.829Z,2.55
2022-08-14T09:53:04.545Z,2.67
2022-08-14T09:55:41.610Z,2.15
2022-08-14T09:58:19.370Z,2.50
2022-08-14T10:01:00.827Z,2.30
2022-08-14T10:03:33.948Z,2.20
2022-08-14T10:06:19.473Z,2.60
2022-08-14T10:08:51.977Z,2.40
2022-08-14T10:11:23.460Z,2.35
2022-08-14T10:13:56.100Z,2.58
2022-08-14T10:16:33.599Z,2.42
2022-08-14T10:19:09.931Z,2.20
2022-08-14T10:23:11.123Z,2.60
2022-08-14T10:24:37.206Z,2.70
2022-08-14T10:27:17.005Z,2.40
2022-08-14T10:29:49.888Z,2.55
2022-08-14T10:32:28.241Z,2.40
2022-08-14T10:35:13.255Z,2.40
2022-08-14T10:37:52.509Z,2.03
2022-08-14T10:40:38.187Z,2.10
2022-08-14T10:43:31.829Z,2.10
2022-08-14T10:46:22.105Z,2.63
2022-08-14T10:49:02.741Z,2.25
2022-08-14T10:51:39.798Z,2.42
2022-08-14T10:54:16.956Z,2.50
2022-08-14T10:57:12.268Z,2.40
2022-08-14T10:59:55.586Z,2.22
2022-08-14T11:02:44.806Z,1.90
2022-08-14T11:05:23.521Z,2.25
2022-08-14T11:07:56.356Z,1.85
2022-08-14T11:10:45.292Z,2.38
2022-08-14T11:13:24.286Z,2.30
2022-08-14T11:16:00.614Z,1.90
2022-08-14T11:18:35.723Z,1.70
2022-08-14T11:21:10.563Z,2.17
2022-08-14T11:23:41.188Z,1.92
2022-08-14T11:26:19.346Z,1.92
2022-08-14T11:28:50.428Z,2.13
2022-08-14T11:31:22.049Z,2.05
2022-08-14T11:33:55.648Z,2.30
2022-08-14T11:36:57.308Z,2.08
2022-08-14T11:39:34.717Z,2.25
2022-08-14T11:45:00.164Z,1.77
2022-08-14T11:47:35.212Z,1.90
2022-08-14T11:50:13.923Z,2.00
2022-08-14T11:52:53.749Z,1.42
2022-08-14T11:55:36.369Z,1.35
2022-08-14T11:58:09.587Z,1.40
2022-08-14T12:01:04.107Z,1.70
2022-08-14T12:03:52.178Z,1.50
2022-08-14T12:06:29.619Z,1.52
2022-08-14T12:09:08.894Z,1.90
2022-08-14T12:11:47.553Z,1.58
2022-08-14T12:14:30.532Z,1.50
2022-08-14T12:17:11.733Z,1.63
2022-08-14T12:19:56.692Z,1.80
2022-08-14T12:22:36.341Z,1.80
2022-08-14T12:25:10.928Z,1.60
2022-08-14T12:27:54.132Z,1.73
2022-08-14T12:30:36.031Z,1.63
2022-08-14T12:33:08.807Z,2.17
2022-08-14T12:35:42.763Z,1.60
2022-08-14T12:38:19.241Z,1.88
2022-08-14T12:40:49.039Z,1.70
2022-08-14T12:43:19.365Z,1.98
2022-08-14T12:45:52.123Z,3.15
2022-08-14T12:48:21.504Z,1.52
2022-08-14T12:50:59.506Z,1.83
2022-08-14T12:53:38.385Z,1.70
2022-08-14T12:56:21.538Z,1.95
2022-08-14T12:58:57.834Z,1.65
2022-08-14T13:01:29.708Z,1.63
2022-08-14T13:04:10.222Z,1.70
2022-08-14T13:06:44.666Z,1.48
2022-08-14T13:09:19.164Z,1.27
2022-08-14T13:11:58.571Z,1.70
2022-08-14T13:14:41.869Z,1.63
2022-08-14T13:17:11.613Z,1.40
2022-08-14T13:19:40.674Z,1.95
2022-08-14T13:22:10.062Z,1.85
2022-08-14T13:24:39.955Z,2.10
2022-08-14T13:27:10.917Z,1.52
2022-08-14T13:29:46.672Z,1.40
2022-08-14T13:32:16.322Z,1.40
2022-08-14T13:34:47.365Z,1.35
2022-08-14T13:37:17.320Z,1.15
2022-08-14T13:39:57.056Z,1.52
2022-08-14T13:42:30.312Z,1.30
2022-08-14T13:45:02.322Z,1.20
2022-08-14T13:47:32.913Z,1.50
2022-08-14T13:50:04.515Z,1.42
2022-08-14T13:52:52.557Z,1.48
2022-08-14T13:55:31.131Z,1.38
2022-08-14T13:58:04.149Z,1.40
2022-08-14T14:00:53.126Z,1.35
2022-08-14T14:03:30.148Z,1.58
2022-08-14T14:06:02.438Z,1.70
2022-08-14T14:08:46.452Z,1.30
2022-08-14T14:11:23.927Z,1.33
2022-08-14T14:13:53.851Z,1.80
2022-08-14T14:16:29.975Z,1.60
2022-08-14T14:19:09.671Z,1.50
2022-08-14T14:21:40.516Z,1.20
2022-08-14T14:24:15.020Z,1.48
2022-08-14T14:26:50.158Z,1.40
2022-08-14T14:29:24.253Z,1.50
2022-08-14T14:31:55.266Z,1.52
2022-08-14T14:34:30.892Z,1.40
2022-08-14T14:37:04.628Z,1.63
2022-08-14T14:39:37.704Z,1.40
2022-08-14T14:42:09.354Z,1.60
2022-08-14T14:44:43.569Z,1.80
2022-08-14T14:47:13.609Z,1.70
2022-08-14T14:49:54.535Z,1.88
2022-08-14T14:52:27.822Z,1.70
2022-08-14T14:54:58.476Z,1.60
2022-08-14T14:57:35.290Z,1.67
2022-08-14T15:00:19.290Z,1.92
2022-08-14T15:02:52.696Z,1.70
2022-08-14T15:05:28.336Z,1.90
2022-08-14T15:07:56.397Z,1.63
2022-08-14T15:10:27.739Z,1.90
2022-08-14T15:13:04.447Z,1.73
2022-08-14T15:15:37.377Z,1.63
2022-08-14T15:18:36.611Z,1.70
2022-08-14T15:20:58.010Z,1.85
2022-08-14T15:23:43.642Z,1.75
2022-08-14T15:26:23.369Z,1.90
2022-08-14T15:29:05.045Z,2.00
2022-08-14T15:31:37.533Z,2.20
2022-08-14T15:34:40.903Z,2.92
2022-08-14T15:37:11.006Z,2.25
2022-08-14T15:42:16.316Z,2.08
2022-08-14T15:44:58.125Z,2.05
2022-08-14T15:47:32.368Z,1.98
2022-08-14T15:50:05.099Z,2.10
2022-08-14T15:52:37.257Z,2.03
2022-08-14T15:55:15.483Z,3.20
2022-08-14T15:58:01.711Z,2.17
2022-08-14T16:00:52.995Z,2.15
2022-08-14T16:03:27.260Z,2.30
2022-08-14T16:06:06.214Z,2.10
2022-08-14T16:08:39.542Z,2.17
2022-08-14T16:11:09.771Z,2.05
2022-08-14T16:13:43.328Z,2.30
2022-08-14T16:16:50.022Z,2.50
2022-08-14T16:19:17.706Z,2.20
2022-08-14T16:22:02.165Z,2.95
2022-08-14T16:25:02.458Z,2.80
2022-08-14T16:27:38.672Z,2.67
2022-08-14T16:30:25.588Z,2.80
2022-08-14T16:32:57.536Z,2.90
2022-08-14T16:35:42.984Z,2.88
2022-08-14T16:38:45.395Z,2.70
2022-08-14T16:41:25.764Z,2.83
2022-08-14T16:44:04.714Z,2.70
2022-08-14T16:46:36.945Z,2.80
2022-08-14T16:49:09.970Z,2.60
2022-08-14T16:51:40.691Z,2.70
2022-08-14T16:54:33.943Z,2.72
2022-08-14T16:57:16.242Z,2.72
2022-08-14T16:59:52.181Z,3.25
2022-08-14T17:02:39.727Z,2.88
2022-08-14T17:05:17.664Z,2.47
2022-08-14T17:08:28.569Z,2.63
2022-08-14T17:10:52.719Z,2.42
2022-08-14T17:13:59.020Z,5.95
2022-08-14T17:16:24.847Z,12.70
2022-08-14T17:19:00.497Z,2.70
2022-08-14T17:21:40.961Z,2.38
2022-08-14T17:24:57.532Z,2.30
2022-08-14T17:27:03.731Z,2.20
2022-08-14T17:29:44.596Z,2.22
2022-08-14T17:32:30.005Z,2.17
2022-08-14T17:35:16.377Z,2.05
2022-08-14T17:37:56.032Z,2.00
2022-08-14T17:40:30.818Z,1.98
2022-08-14T17:43:01.903Z,2.25
2022-08-14T17:45:38.797Z,2.25
2022-08-14T17:49:10.899Z,2.20
2022-08-14T17:51:01.247Z,2.50
2022-08-14T17:53:30.620Z,2.53
2022-08-14T17:56:01.717Z,3.08
2022-08-14T17:58:42.138Z,2.00
2022-08-14T18:01:13.643Z,2.63
2022-08-14T18:03:52.349Z,2.55
2022-08-14T18:06:40.098Z,8.10
2022-08-14T18:12:00.148Z,3.10
2022-08-14T18:14:32.508Z,2.38
2022-08-14T18:17:16.505Z,3.33
2022-08-14T18:19:45.224Z,3.38
2022-08-14T18:22:32.914Z,2.50
2022-08-14T18:25:02.354Z,2.80
2022-08-14T18:27:41.764Z,2.70
2022-08-14T18:30:33.271Z,4.28
2022-08-14T18:32:59.934Z,4.93
2022-08-14T18:35:58.603Z,4.68
2022-08-14T18:38:45.599Z,4.32
2022-08-14T18:41:36.814Z,5.40
2022-08-14T18:44:10.622Z,3.45
2022-08-14T18:47:09.930Z,4.68
2022-08-14T18:50:00.720Z,4.88
2022-08-14T18:52:35.707Z,5.45
2022-08-14T18:55:18.697Z,5.53
2022-08-14T18:57:57.585Z,5.55
2022-08-14T19:00:33.005Z,4.63
2022-08-14T19:03:05.915Z,4.68
2022-08-14T19:05:47.771Z,4.00
2022-08-14T19:08:24.980Z,4.28
2022-08-14T19:10:59.414Z,4.78
2022-08-14T19:13:44.748Z,4.93
2022-08-14T19:16:23.364Z,5.03
2022-08-14T19:19:00.026Z,4.45
2022-08-14T19:21:30.803Z,4.35
2022-08-14T19:24:27.830Z,4.45
2022-08-14T19:27:25.186Z,4.90
2022-08-14T19:30:19.633Z,4.60
2022-08-14T19:32:56.059Z,3.95
2022-08-14T19:35:49.168Z,4.68
2022-08-14T19:38:54.593Z,4.05
2022-08-14T19:41:34.554Z,3.88
2022-08-14T19:44:14.716Z,4.13
2022-08-14T19:47:01.657Z,4.25
2022-08-14T19:50:25.167Z,4.30
2022-08-14T19:52:29.838Z,4.05
2022-08-14T19:54:59.718Z,4.03
2022-08-14T19:57:29.964Z,3.85
2022-08-14T20:00:28.424Z,3.78
2022-08-14T20:03:10.093Z,3.92
2022-08-14T20:05:43.022Z,4.43
2022-08-14T20:11:01.430Z,4.07
2022-08-14T20:14:20.507Z,4.70
2022-08-14T20:17:06.129Z,4.72
2022-08-14T20:19:37.591Z,4.70
2022-08-14T20:22:35.604Z,4.97
2022-08-14T20:25:20.673Z,5.05
2022-08-14T20:27:50.999Z,4.97
2022-08-14T20:30:33.815Z,5.32
2022-08-14T20:33:10.863Z,5.25
2022-08-14T20:35:47.605Z,5.22
2022-08-14T20:38:30.473Z,5.65
2022-08-14T20:41:06.593Z,6.00
2022-08-14T20:43:56.712Z,6.32
2022-08-14T20:46:31.706Z,6.40
2022-08-14T20:49:04.762Z,6.40
2022-08-14T20:51:47.280Z,5.80
2022-08-14T20:54:33.979Z,5.70
2022-08-14T20:57:08.815Z,6.45
2022-08-14T20:59:45.530Z,6.45
2022-08-14T21:02:50.346Z,6.00
2022-08-14T21:05:33.370Z,5.20
2022-08-14T21:08:08.356Z,5.70
2022-08-14T21:10:56.694Z,5.32
2022-08-14T21:14:08.944Z,5.00
2022-08-14T21:16:33.335Z,4.45
2022-08-14T21:19:04.149Z,4.68
2022-08-14T21:21:41.393Z,4.53
2022-08-14T21:24:38.448Z,5.20
2022-08-14T21:27:12.926Z,4.45
2022-08-14T21:29:53.533Z,5.00
2022-08-14T21:32:47.355Z,4.82
2022-08-14T21:37:52.582Z,4.20
2022-08-14T21:40:39.794Z,3.78
2022-08-14T21:43:17.523Z,3.35
2022-08-14T21:45:53.947Z,3.88
2022-08-14T21:48:32.046Z,3.80
2022-08-14T21:51:53.808Z,3.90
2022-08-14T21:53:58.895Z,3.10
2022-08-14T21:56:37.650Z,2.88
2022-08-14T21:59:17.699Z,3.45
2022-08-14T22:02:01.918Z,2.92
2022-08-14T22:04:40.115Z,2.85
2022-08-14T22:07:16.950Z,3.00
2022-08-14T22:09:54.639Z,2.75
2022-08-14T22:12:47.218Z,3.00
2022-08-14T22:15:14.865Z,3.22
2022-08-14T22:17:44.208Z,3.00
2022-08-14T22:22:45.321Z,2.80
2022-08-14T22:25:17.225Z,2.50
2022-08-14T22:27:55.576Z,2.80
2022-08-14T22:30:25.404Z,2.92
2022-08-14T22:32:56.811Z,2.85
2022-08-14T22:35:27.433Z,2.60
2022-08-14T22:38:34.660Z,2.40
2022-08-14T22:41:17.829Z,2.45
2022-08-14T22:43:35.185Z,2.50
2022-08-14T22:46:06.259Z,2.50
2022-08-14T22:48:45.495Z,2.40
2022-08-14T22:51:19.013Z,2.45
2022-08-14T22:53:52.405Z,2.63
2022-08-14T22:56:29.483Z,2.55
2022-08-14T22:59:01.954Z,2.35
2022-08-14T23:01:55.584Z,2.67
2022-08-14T23:04:35.568Z,2.67
2022-08-14T23:07:22.829Z,2.65
2022-08-14T23:10:32.061Z,2.33
2022-08-14T23:12:54.481Z,2.40
2022-08-14T23:15:30.213Z,2.58
2022-08-14T23:17:59.421Z,2.58
2022-08-14T23:20:29.570Z,2.35
2022-08-14T23:22:57.678Z,2.30
2022-08-14T23:25:50.014Z,2.30
2022-08-14T23:28:33.548Z,2.50
2022-08-14T23:31:14.231Z,2.38
2022-08-14T23:33:51.787Z,2.70
2022-08-14T23:36:28.513Z,2.50
2022-08-14T23:39:02.113Z,2.50
2022-08-14T23:41:46.314Z,2.40
2022-08-14T23:44:24.034Z,2.20
2022-08-14T23:46:56.840Z,2.90
2022-08-14T23:49:41.225Z,2.15
2022-08-14T23:52:56.221Z,2.30
2022-08-14T23:55:11.132Z,2.30
2022-08-14T23:57:44.142Z,2.03
